sensor_id;sensor_type;location;lat;lon;timestamp;P1;durP1;ratioP1;P2;durP2;ratioP2
68178;SDS011;69812;42.632;23.440;2024-02-14T00:00:12;8.15;;;4.22;;
68178;SDS011;69812;42.632;23.440;2024-02-14T00:02:44;9.68;;;4.32;;
68178;SDS011;69812;42.632;23.440;2024-02-14T00:05:10;9.43;;;4.85;;
68178;SDS011;69812;42.632;23.440;2024-02-14T00:07:38;8.20;;;4.70;;
68178;SDS011;69812;42.632;23.440;2024-02-14T00:10:05;9.88;;;4.68;;
68178;SDS011;69812;42.632;23.440;2024-02-14T00:12:35;9.48;;;4.72;;
68178;SDS011;69812;42.632;23.440;2024-02-14T00:15:04;7.85;;;4.72;;
68178;SDS011;69812;42.632;23.440;2024-02-14T00:17:34;7.22;;;3.53;;
68178;SDS011;69812;42.632;23.440;2024-02-14T00:20:00;8.02;;;4.20;;
68178;SDS011;69812;42.632;23.440;2024-02-14T00:22:26;9.32;;;4.75;;
68178;SDS011;69812;42.632;23.440;2024-02-14T00:24:54;8.88;;;4.25;;
68178;SDS011;69812;42.632;23.440;2024-02-14T00:41:36;10.55;;;5.47;;
68178;SDS011;69812;42.632;23.440;2024-02-14T00:44:02;9.88;;;5.15;;
68178;SDS011;69812;42.632;23.440;2024-02-14T00:46:28;10.00;;;4.82;;
68178;SDS011;69812;42.632;23.440;2024-02-14T00:48:54;10.55;;;4.82;;
68178;SDS011;69812;42.632;23.440;2024-02-14T00:51:19;8.65;;;4.57;;
68178;SDS011;69812;42.632;23.440;2024-02-14T00:53:46;8.77;;;4.93;;
68178;SDS011;69812;42.632;23.440;2024-02-14T00:56:11;8.60;;;4.47;;
68178;SDS011;69812;42.632;23.440;2024-02-14T00:58:36;10.18;;;5.00;;
68178;SDS011;69812;42.632;23.440;2024-02-14T01:01:02;7.57;;;4.32;;
68178;SDS011;69812;42.632;23.440;2024-02-14T01:03:27;10.43;;;4.75;;
68178;SDS011;69812;42.632;23.440;2024-02-14T01:05:53;8.77;;;4.90;;
68178;SDS011;69812;42.632;23.440;2024-02-14T01:08:20;9.40;;;4.93;;
68178;SDS011;69812;42.632;23.440;2024-02-14T01:10:45;10.75;;;5.22;;
68178;SDS011;69812;42.632;23.440;2024-02-14T01:13:12;9.10;;;4.63;;
68178;SDS011;69812;42.632;23.440;2024-02-14T01:15:40;9.25;;;4.40;;
68178;SDS011;69812;42.632;23.440;2024-02-14T01:18:07;9.95;;;4.95;;
68178;SDS011;69812;42.632;23.440;2024-02-14T01:20:33;8.98;;;4.80;;
68178;SDS011;69812;42.632;23.440;2024-02-14T01:22:58;10.90;;;5.03;;
68178;SDS011;69812;42.632;23.440;2024-02-14T01:25:24;10.50;;;4.63;;
68178;SDS011;69812;42.632;23.440;2024-02-14T01:27:53;12.77;;;5.15;;
68178;SDS011;69812;42.632;23.440;2024-02-14T01:30:21;12.45;;;5.82;;
68178;SDS011;69812;42.632;23.440;2024-02-14T01:32:46;10.93;;;5.38;;
68178;SDS011;69812;42.632;23.440;2024-02-14T01:35:11;8.75;;;4.80;;
68178;SDS011;69812;42.632;23.440;2024-02-14T01:37:37;12.82;;;5.15;;
68178;SDS011;69812;42.632;23.440;2024-02-14T01:40:03;10.18;;;5.18;;
68178;SDS011;69812;42.632;23.440;2024-02-14T01:42:29;10.00;;;4.63;;
68178;SDS011;69812;42.632;23.440;2024-02-14T01:44:54;10.65;;;4.80;;
68178;SDS011;69812;42.632;23.440;2024-02-14T01:47:19;9.10;;;4.70;;
68178;SDS011;69812;42.632;23.440;2024-02-14T01:49:50;10.48;;;5.13;;
68178;SDS011;69812;42.632;23.440;2024-02-14T01:52:15;9.95;;;5.03;;
68178;SDS011;69812;42.632;23.440;2024-02-14T01:54:41;10.98;;;5.30;;
68178;SDS011;69812;42.632;23.440;2024-02-14T01:57:07;11.43;;;5.25;;
68178;SDS011;69812;42.632;23.440;2024-02-14T01:59:36;10.52;;;5.55;;
68178;SDS011;69812;42.632;23.440;2024-02-14T02:02:04;11.70;;;5.22;;
68178;SDS011;69812;42.632;23.440;2024-02-14T02:04:32;11.02;;;5.70;;
68178;SDS011;69812;42.632;23.440;2024-02-14T02:07:00;9.63;;;4.95;;
68178;SDS011;69812;42.632;23.440;2024-02-14T02:09:26;12.30;;;5.93;;
68178;SDS011;69812;42.632;23.440;2024-02-14T02:11:52;10.57;;;4.78;;
68178;SDS011;69812;42.632;23.440;2024-02-14T02:14:21;10.35;;;5.65;;
68178;SDS011;69812;42.632;23.440;2024-02-14T02:16:47;9.05;;;5.07;;
68178;SDS011;69812;42.632;23.440;2024-02-14T02:19:12;11.07;;;5.93;;
68178;SDS011;69812;42.632;23.440;2024-02-14T02:21:38;10.55;;;5.22;;
68178;SDS011;69812;42.632;23.440;2024-02-14T02:24:04;9.43;;;4.28;;
68178;SDS011;69812;42.632;23.440;2024-02-14T02:26:32;11.63;;;5.18;;
68178;SDS011;69812;42.632;23.440;2024-02-14T02:28:57;10.98;;;5.50;;
68178;SDS011;69812;42.632;23.440;2024-02-14T02:31:32;11.48;;;5.55;;
68178;SDS011;69812;42.632;23.440;2024-02-14T02:33:59;11.68;;;5.60;;
68178;SDS011;69812;42.632;23.440;2024-02-14T02:36:25;10.20;;;5.30;;
68178;SDS011;69812;42.632;23.440;2024-02-14T02:38:54;10.73;;;5.03;;
68178;SDS011;69812;42.632;23.440;2024-02-14T02:41:20;10.63;;;5.32;;
68178;SDS011;69812;42.632;23.440;2024-02-14T02:43:47;11.85;;;5.90;;
68178;SDS011;69812;42.632;23.440;2024-02-14T02:46:15;10.07;;;5.10;;
68178;SDS011;69812;42.632;23.440;2024-02-14T02:48:41;13.05;;;5.70;;
68178;SDS011;69812;42.632;23.440;2024-02-14T02:51:06;11.82;;;6.22;;
68178;SDS011;69812;42.632;23.440;2024-02-14T02:53:34;9.40;;;5.07;;
68178;SDS011;69812;42.632;23.440;2024-02-14T02:56:00;11.95;;;5.90;;
68178;SDS011;69812;42.632;23.440;2024-02-14T02:58:25;11.00;;;5.88;;
68178;SDS011;69812;42.632;23.440;2024-02-14T03:00:53;9.93;;;4.93;;
68178;SDS011;69812;42.632;23.440;2024-02-14T03:03:21;10.77;;;5.53;;
68178;SDS011;69812;42.632;23.440;2024-02-14T03:05:47;9.85;;;5.22;;
68178;SDS011;69812;42.632;23.440;2024-02-14T03:08:12;11.35;;;5.07;;
68178;SDS011;69812;42.632;23.440;2024-02-14T03:10:40;12.68;;;6.00;;
68178;SDS011;69812;42.632;23.440;2024-02-14T03:13:06;12.13;;;6.03;;
68178;SDS011;69812;42.632;23.440;2024-02-14T03:15:34;11.55;;;5.93;;
68178;SDS011;69812;42.632;23.440;2024-02-14T03:18:00;13.25;;;5.72;;
68178;SDS011;69812;42.632;23.440;2024-02-14T03:20:26;11.35;;;5.60;;
68178;SDS011;69812;42.632;23.440;2024-02-14T03:22:54;12.02;;;5.40;;
68178;SDS011;69812;42.632;23.440;2024-02-14T03:25:19;12.88;;;6.40;;
68178;SDS011;69812;42.632;23.440;2024-02-14T03:27:45;11.75;;;6.28;;
68178;SDS011;69812;42.632;23.440;2024-02-14T03:30:17;13.68;;;5.72;;
68178;SDS011;69812;42.632;23.440;2024-02-14T03:32:47;12.32;;;5.63;;
68178;SDS011;69812;42.632;23.440;2024-02-14T03:35:19;11.85;;;5.50;;
68178;SDS011;69812;42.632;23.440;2024-02-14T03:37:48;13.98;;;6.55;;
68178;SDS011;69812;42.632;23.440;2024-02-14T03:40:14;13.20;;;6.20;;
68178;SDS011;69812;42.632;23.440;2024-02-14T03:42:39;13.25;;;6.35;;
68178;SDS011;69812;42.632;23.440;2024-02-14T03:45:05;10.57;;;5.45;;
68178;SDS011;69812;42.632;23.440;2024-02-14T03:47:34;12.70;;;6.10;;
68178;SDS011;69812;42.632;23.440;2024-02-14T03:50:02;13.52;;;6.22;;
68178;SDS011;69812;42.632;23.440;2024-02-14T03:52:29;11.52;;;5.60;;
68178;SDS011;69812;42.632;23.440;2024-02-14T03:54:57;11.35;;;6.20;;
68178;SDS011;69812;42.632;23.440;2024-02-14T03:57:23;11.73;;;6.38;;
68178;SDS011;69812;42.632;23.440;2024-02-14T03:59:50;12.23;;;6.03;;
68178;SDS011;69812;42.632;23.440;2024-02-14T04:02:18;9.73;;;5.43;;
68178;SDS011;69812;42.632;23.440;2024-02-14T04:04:46;11.38;;;5.75;;
68178;SDS011;69812;42.632;23.440;2024-02-14T04:07:12;15.10;;;6.43;;
68178;SDS011;69812;42.632;23.440;2024-02-14T04:09:37;12.82;;;5.55;;
68178;SDS011;69812;42.632;23.440;2024-02-14T04:12:03;11.88;;;6.47;;
68178;SDS011;69812;42.632;23.440;2024-02-14T04:14:29;11.27;;;5.72;;
68178;SDS011;69812;42.632;23.440;2024-02-14T04:16:54;15.07;;;5.95;;
68178;SDS011;69812;42.632;23.440;2024-02-14T04:19:22;12.07;;;6.53;;
68178;SDS011;69812;42.632;23.440;2024-02-14T04:21:48;12.50;;;6.00;;
68178;SDS011;69812;42.632;23.440;2024-02-14T04:24:15;11.77;;;6.15;;
68178;SDS011;69812;42.632;23.440;2024-02-14T04:26:41;12.18;;;6.78;;
68178;SDS011;69812;42.632;23.440;2024-02-14T04:29:07;13.82;;;6.68;;
68178;SDS011;69812;42.632;23.440;2024-02-14T04:31:36;12.82;;;6.82;;
68178;SDS011;69812;42.632;23.440;2024-02-14T04:34:04;10.45;;;5.88;;
68178;SDS011;69812;42.632;23.440;2024-02-14T04:36:32;11.27;;;6.18;;
68178;SDS011;69812;42.632;23.440;2024-02-14T04:38:58;15.60;;;6.28;;
68178;SDS011;69812;42.632;23.440;2024-02-14T04:41:23;15.50;;;6.75;;
68178;SDS011;69812;42.632;23.440;2024-02-14T04:43:48;13.02;;;6.63;;
68178;SDS011;69812;42.632;23.440;2024-02-14T04:46:17;13.18;;;7.20;;
68178;SDS011;69812;42.632;23.440;2024-02-14T04:48:47;16.05;;;7.05;;
68178;SDS011;69812;42.632;23.440;2024-02-14T04:51:14;14.50;;;7.32;;
68178;SDS011;69812;42.632;23.440;2024-02-14T04:53:40;13.45;;;7.00;;
68178;SDS011;69812;42.632;23.440;2024-02-14T04:56:05;16.38;;;7.80;;
68178;SDS011;69812;42.632;23.440;2024-02-14T04:58:31;16.38;;;7.13;;
68178;SDS011;69812;42.632;23.440;2024-02-14T05:00:58;15.13;;;7.18;;
68178;SDS011;69812;42.632;23.440;2024-02-14T05:03:27;13.45;;;6.70;;
68178;SDS011;69812;42.632;23.440;2024-02-14T05:05:52;14.00;;;7.13;;
68178;SDS011;69812;42.632;23.440;2024-02-14T05:08:18;13.88;;;6.85;;
68178;SDS011;69812;42.632;23.440;2024-02-14T05:10:43;14.48;;;7.30;;
68178;SDS011;69812;42.632;23.440;2024-02-14T05:13:09;16.02;;;7.82;;
68178;SDS011;69812;42.632;23.440;2024-02-14T05:15:34;14.77;;;7.97;;
68178;SDS011;69812;42.632;23.440;2024-02-14T05:18:00;14.85;;;7.18;;
68178;SDS011;69812;42.632;23.440;2024-02-14T05:20:25;15.45;;;7.68;;
68178;SDS011;69812;42.632;23.440;2024-02-14T05:22:51;15.32;;;8.00;;
68178;SDS011;69812;42.632;23.440;2024-02-14T05:25:16;16.85;;;7.60;;
68178;SDS011;69812;42.632;23.440;2024-02-14T05:27:44;16.88;;;8.38;;
68178;SDS011;69812;42.632;23.440;2024-02-14T05:30:12;18.60;;;8.35;;
68178;SDS011;69812;42.632;23.440;2024-02-14T05:32:37;17.02;;;7.97;;
68178;SDS011;69812;42.632;23.440;2024-02-14T05:35:04;19.27;;;9.10;;
68178;SDS011;69812;42.632;23.440;2024-02-14T05:37:31;16.80;;;7.93;;
68178;SDS011;69812;42.632;23.440;2024-02-14T05:39:57;20.13;;;8.98;;
68178;SDS011;69812;42.632;23.440;2024-02-14T05:42:22;16.63;;;8.15;;
68178;SDS011;69812;42.632;23.440;2024-02-14T05:44:52;16.25;;;8.45;;
68178;SDS011;69812;42.632;23.440;2024-02-14T05:47:18;16.60;;;8.30;;
68178;SDS011;69812;42.632;23.440;2024-02-14T05:49:43;19.30;;;9.13;;
68178;SDS011;69812;42.632;23.440;2024-02-14T05:52:09;23.10;;;9.23;;
68178;SDS011;69812;42.632;23.440;2024-02-14T05:54:34;17.15;;;8.05;;
68178;SDS011;69812;42.632;23.440;2024-02-14T05:57:02;17.90;;;7.95;;
68178;SDS011;69812;42.632;23.440;2024-02-14T05:59:28;18.30;;;8.63;;
68178;SDS011;69812;42.632;23.440;2024-02-14T06:01:56;19.90;;;9.77;;
68178;SDS011;69812;42.632;23.440;2024-02-14T06:04:21;18.27;;;8.85;;
68178;SDS011;69812;42.632;23.440;2024-02-14T06:06:47;15.05;;;7.63;;
68178;SDS011;69812;42.632;23.440;2024-02-14T06:09:12;18.05;;;8.23;;
68178;SDS011;69812;42.632;23.440;2024-02-14T06:11:37;18.33;;;10.15;;
68178;SDS011;69812;42.632;23.440;2024-02-14T06:14:07;19.38;;;9.13;;
68178;SDS011;69812;42.632;23.440;2024-02-14T06:16:35;15.40;;;7.75;;
68178;SDS011;69812;42.632;23.440;2024-02-14T06:19:01;17.50;;;9.68;;
68178;SDS011;69812;42.632;23.440;2024-02-14T06:21:29;16.02;;;8.55;;
68178;SDS011;69812;42.632;23.440;2024-02-14T06:23:57;18.45;;;8.55;;
68178;SDS011;69812;42.632;23.440;2024-02-14T06:26:25;18.52;;;8.00;;
68178;SDS011;69812;42.632;23.440;2024-02-14T06:28:56;17.45;;;8.63;;
68178;SDS011;69812;42.632;23.440;2024-02-14T06:31:27;17.17;;;8.35;;
68178;SDS011;69812;42.632;23.440;2024-02-14T06:33:53;16.58;;;8.40;;
68178;SDS011;69812;42.632;23.440;2024-02-14T06:36:18;17.05;;;7.93;;
68178;SDS011;69812;42.632;23.440;2024-02-14T06:38:43;16.27;;;8.05;;
68178;SDS011;69812;42.632;23.440;2024-02-14T06:41:11;15.88;;;7.95;;
68178;SDS011;69812;42.632;23.440;2024-02-14T06:43:39;18.40;;;7.80;;
68178;SDS011;69812;42.632;23.440;2024-02-14T06:46:07;16.77;;;8.50;;
68178;SDS011;69812;42.632;23.440;2024-02-14T06:48:32;16.25;;;8.85;;
68178;SDS011;69812;42.632;23.440;2024-02-14T06:50:59;15.40;;;8.25;;
68178;SDS011;69812;42.632;23.440;2024-02-14T06:53:24;13.10;;;6.28;;
68178;SDS011;69812;42.632;23.440;2024-02-14T06:55:50;15.02;;;7.47;;
68178;SDS011;69812;42.632;23.440;2024-02-14T06:58:15;14.10;;;7.50;;
68178;SDS011;69812;42.632;23.440;2024-02-14T07:00:41;15.15;;;7.90;;
68178;SDS011;69812;42.632;23.440;2024-02-14T07:03:06;13.98;;;7.40;;
68178;SDS011;69812;42.632;23.440;2024-02-14T07:05:31;14.13;;;7.07;;
68178;SDS011;69812;42.632;23.440;2024-02-14T07:07:57;15.75;;;7.35;;
68178;SDS011;69812;42.632;23.440;2024-02-14T07:10:22;16.00;;;8.10;;
68178;SDS011;69812;42.632;23.440;2024-02-14T07:12:48;14.15;;;7.50;;
68178;SDS011;69812;42.632;23.440;2024-02-14T07:15:13;15.13;;;7.15;;
68178;SDS011;69812;42.632;23.440;2024-02-14T07:17:39;15.55;;;7.70;;
68178;SDS011;69812;42.632;23.440;2024-02-14T07:20:04;15.95;;;7.80;;
68178;SDS011;69812;42.632;23.440;2024-02-14T07:22:33;15.23;;;7.55;;
68178;SDS011;69812;42.632;23.440;2024-02-14T07:25:01;15.20;;;7.82;;
68178;SDS011;69812;42.632;23.440;2024-02-14T07:27:27;15.93;;;7.25;;
68178;SDS011;69812;42.632;23.440;2024-02-14T07:29:52;11.75;;;6.47;;
68178;SDS011;69812;42.632;23.440;2024-02-14T07:32:20;12.80;;;6.55;;
68178;SDS011;69812;42.632;23.440;2024-02-14T07:34:46;13.18;;;6.70;;
68178;SDS011;69812;42.632;23.440;2024-02-14T07:37:12;14.50;;;7.70;;
68178;SDS011;69812;42.632;23.440;2024-02-14T07:39:43;14.38;;;7.10;;
68178;SDS011;69812;42.632;23.440;2024-02-14T07:42:11;13.70;;;6.70;;
68178;SDS011;69812;42.632;23.440;2024-02-14T07:44:36;13.65;;;6.47;;
68178;SDS011;69812;42.632;23.440;2024-02-14T07:47:02;14.93;;;7.13;;
68178;SDS011;69812;42.632;23.440;2024-02-14T07:49:28;13.25;;;6.63;;
68178;SDS011;69812;42.632;23.440;2024-02-14T07:51:53;11.55;;;6.40;;
68178;SDS011;69812;42.632;23.440;2024-02-14T07:54:21;13.45;;;6.43;;
68178;SDS011;69812;42.632;23.440;2024-02-14T07:56:47;13.63;;;6.85;;
68178;SDS011;69812;42.632;23.440;2024-02-14T07:59:14;16.55;;;6.07;;
68178;SDS011;69812;42.632;23.440;2024-02-14T08:01:39;13.88;;;6.10;;
68178;SDS011;69812;42.632;23.440;2024-02-14T08:04:05;14.50;;;6.43;;
68178;SDS011;69812;42.632;23.440;2024-02-14T08:06:30;14.00;;;6.97;;
68178;SDS011;69812;42.632;23.440;2024-02-14T08:08:56;14.68;;;6.97;;
68178;SDS011;69812;42.632;23.440;2024-02-14T08:11:26;14.10;;;6.88;;
68178;SDS011;69812;42.632;23.440;2024-02-14T08:13:52;14.27;;;6.40;;
68178;SDS011;69812;42.632;23.440;2024-02-14T08:16:17;12.07;;;6.65;;
68178;SDS011;69812;42.632;23.440;2024-02-14T08:18:43;14.38;;;6.32;;
68178;SDS011;69812;42.632;23.440;2024-02-14T08:21:16;13.80;;;6.45;;
68178;SDS011;69812;42.632;23.440;2024-02-14T08:23:41;11.70;;;6.07;;
68178;SDS011;69812;42.632;23.440;2024-02-14T08:26:07;14.45;;;6.32;;
68178;SDS011;69812;42.632;23.440;2024-02-14T08:28:38;10.20;;;6.15;;
68178;SDS011;69812;42.632;23.440;2024-02-14T08:31:09;12.35;;;6.45;;
68178;SDS011;69812;42.632;23.440;2024-02-14T08:33:38;11.85;;;6.13;;
68178;SDS011;69812;42.632;23.440;2024-02-14T08:36:04;11.88;;;5.93;;
68178;SDS011;69812;42.632;23.440;2024-02-14T08:38:30;11.13;;;6.20;;
68178;SDS011;69812;42.632;23.440;2024-02-14T08:41:00;10.15;;;5.85;;
68178;SDS011;69812;42.632;23.440;2024-02-14T08:43:26;10.90;;;5.88;;
68178;SDS011;69812;42.632;23.440;2024-02-14T08:45:53;12.68;;;6.28;;
68178;SDS011;69812;42.632;23.440;2024-02-14T08:48:21;12.00;;;5.95;;
68178;SDS011;69812;42.632;23.440;2024-02-14T08:50:50;9.75;;;5.60;;
68178;SDS011;69812;42.632;23.440;2024-02-14T08:53:15;10.13;;;5.15;;
68178;SDS011;69812;42.632;23.440;2024-02-14T08:55:43;11.95;;;6.05;;
68178;SDS011;69812;42.632;23.440;2024-02-14T08:58:09;11.45;;;5.65;;
68178;SDS011;69812;42.632;23.440;2024-02-14T09:00:35;11.40;;;6.18;;
68178;SDS011;69812;42.632;23.440;2024-02-14T09:03:01;10.80;;;5.65;;
68178;SDS011;69812;42.632;23.440;2024-02-14T09:05:27;12.82;;;6.72;;
68178;SDS011;69812;42.632;23.440;2024-02-14T09:07:53;11.55;;;5.90;;
68178;SDS011;69812;42.632;23.440;2024-02-14T09:10:19;12.45;;;5.22;;
68178;SDS011;69812;42.632;23.440;2024-02-14T10:32:33;9.82;;;6.18;;
68178;SDS011;69812;42.632;23.440;2024-02-14T10:34:58;15.73;;;6.95;;
68178;SDS011;69812;42.632;23.440;2024-02-14T11:14:44;12.10;;;7.35;;
68178;SDS011;69812;42.632;23.440;2024-02-14T11:17:10;10.95;;;6.22;;
68178;SDS011;69812;42.632;23.440;2024-02-14T11:19:38;11.35;;;6.43;;
68178;SDS011;69812;42.632;23.440;2024-02-14T11:22:13;12.05;;;5.30;;
68178;SDS011;69812;42.632;23.440;2024-02-14T11:24:45;10.38;;;5.55;;
68178;SDS011;69812;42.632;23.440;2024-02-14T11:27:11;11.88;;;5.47;;
68178;SDS011;69812;42.632;23.440;2024-02-14T11:29:38;10.30;;;5.82;;
68178;SDS011;69812;42.632;23.440;2024-02-14T11:32:06;10.60;;;5.35;;
68178;SDS011;69812;42.632;23.440;2024-02-14T11:34:34;11.95;;;5.88;;
68178;SDS011;69812;42.632;23.440;2024-02-14T11:37:03;10.20;;;5.18;;
68178;SDS011;69812;42.632;23.440;2024-02-14T11:39:30;8.32;;;4.75;;
68178;SDS011;69812;42.632;23.440;2024-02-14T11:41:56;9.20;;;5.32;;
68178;SDS011;69812;42.632;23.440;2024-02-14T11:44:23;11.07;;;5.32;;
68178;SDS011;69812;42.632;23.440;2024-02-14T11:46:51;10.25;;;5.47;;
68178;SDS011;69812;42.632;23.440;2024-02-14T11:49:19;10.73;;;5.55;;
68178;SDS011;69812;42.632;23.440;2024-02-14T11:51:46;10.32;;;5.45;;
68178;SDS011;69812;42.632;23.440;2024-02-14T11:54:11;10.13;;;5.57;;
68178;SDS011;69812;42.632;23.440;2024-02-14T11:56:37;10.02;;;5.13;;
68178;SDS011;69812;42.632;23.440;2024-02-14T11:59:05;9.55;;;5.15;;
68178;SDS011;69812;42.632;23.440;2024-02-14T12:01:35;9.38;;;5.38;;
68178;SDS011;69812;42.632;23.440;2024-02-14T12:04:04;7.28;;;4.25;;
68178;SDS011;69812;42.632;23.440;2024-02-14T12:06:35;10.38;;;5.00;;
68178;SDS011;69812;42.632;23.440;2024-02-14T12:09:06;10.43;;;5.50;;
68178;SDS011;69812;42.632;23.440;2024-02-14T12:11:35;9.57;;;5.05;;
68178;SDS011;69812;42.632;23.440;2024-02-14T12:14:07;11.88;;;5.28;;
68178;SDS011;69812;42.632;23.440;2024-02-14T12:16:34;10.65;;;5.32;;
68178;SDS011;69812;42.632;23.440;2024-02-14T12:19:08;8.68;;;5.15;;
68178;SDS011;69812;42.632;23.440;2024-02-14T12:21:41;9.75;;;4.90;;
68178;SDS011;69812;42.632;23.440;2024-02-14T12:24:10;9.73;;;5.47;;
68178;SDS011;69812;42.632;23.440;2024-02-14T12:26:37;9.75;;;4.45;;
68178;SDS011;69812;42.632;23.440;2024-02-14T12:29:04;9.30;;;4.88;;
68178;SDS011;69812;42.632;23.440;2024-02-14T12:31:30;10.15;;;5.60;;
68178;SDS011;69812;42.632;23.440;2024-02-14T12:33:56;10.63;;;5.30;;
68178;SDS011;69812;42.632;23.440;2024-02-14T12:36:24;10.88;;;5.35;;
68178;SDS011;69812;42.632;23.440;2024-02-14T12:38:53;9.32;;;5.38;;
68178;SDS011;69812;42.632;23.440;2024-02-14T12:41:19;8.75;;;5.30;;
68178;SDS011;69812;42.632;23.440;2024-02-14T12:43:45;10.82;;;5.63;;
68178;SDS011;69812;42.632;23.440;2024-02-14T12:46:10;9.27;;;5.63;;
68178;SDS011;69812;42.632;23.440;2024-02-14T12:48:35;11.45;;;5.95;;
68178;SDS011;69812;42.632;23.440;2024-02-14T12:51:01;9.68;;;4.80;;
68178;SDS011;69812;42.632;23.440;2024-02-14T12:53:29;10.07;;;5.40;;
68178;SDS011;69812;42.632;23.440;2024-02-14T12:55:54;10.55;;;5.35;;
68178;SDS011;69812;42.632;23.440;2024-02-14T12:58:20;12.18;;;5.85;;
68178;SDS011;69812;42.632;23.440;2024-02-14T13:00:45;10.80;;;5.35;;
68178;SDS011;69812;42.632;23.440;2024-02-14T13:03:11;9.95;;;5.47;;
68178;SDS011;69812;42.632;23.440;2024-02-14T13:05:37;13.50;;;5.57;;
68178;SDS011;69812;42.632;23.440;2024-02-14T13:08:02;10.15;;;5.55;;
68178;SDS011;69812;42.632;23.440;2024-02-14T13:10:28;8.82;;;5.20;;
68178;SDS011;69812;42.632;23.440;2024-02-14T13:12:56;9.50;;;4.72;;
68178;SDS011;69812;42.632;23.440;2024-02-14T13:15:22;10.27;;;5.45;;
68178;SDS011;69812;42.632;23.440;2024-02-14T13:17:47;13.57;;;5.70;;
68178;SDS011;69812;42.632;23.440;2024-02-14T13:20:15;12.63;;;5.45;;
68178;SDS011;69812;42.632;23.440;2024-02-14T13:22:41;11.93;;;5.57;;
68178;SDS011;69812;42.632;23.440;2024-02-14T13:25:09;9.18;;;5.10;;
68178;SDS011;69812;42.632;23.440;2024-02-14T13:27:35;12.65;;;5.72;;
68178;SDS011;69812;42.632;23.440;2024-02-14T13:30:01;11.63;;;5.53;;
68178;SDS011;69812;42.632;23.440;2024-02-14T13:32:27;9.73;;;5.22;;
68178;SDS011;69812;42.632;23.440;2024-02-14T13:34:52;12.05;;;5.28;;
68178;SDS011;69812;42.632;23.440;2024-02-14T13:37:18;10.40;;;5.93;;
68178;SDS011;69812;42.632;23.440;2024-02-14T13:39:46;11.27;;;5.28;;
68178;SDS011;69812;42.632;23.440;2024-02-14T13:42:11;12.10;;;5.53;;
68178;SDS011;69812;42.632;23.440;2024-02-14T13:44:39;10.65;;;4.93;;
68178;SDS011;69812;42.632;23.440;2024-02-14T13:47:04;11.50;;;5.20;;
68178;SDS011;69812;42.632;23.440;2024-02-14T13:49:30;14.25;;;5.70;;
68178;SDS011;69812;42.632;23.440;2024-02-14T13:51:57;9.98;;;4.78;;
68178;SDS011;69812;42.632;23.440;2024-02-14T13:54:23;11.70;;;5.40;;
68178;SDS011;69812;42.632;23.440;2024-02-14T13:56:49;11.20;;;5.03;;
68178;SDS011;69812;42.632;23.440;2024-02-14T13:59:15;12.20;;;5.47;;
68178;SDS011;69812;42.632;23.440;2024-02-14T14:01:41;11.65;;;5.20;;
68178;SDS011;69812;42.632;23.440;2024-02-14T14:04:07;10.73;;;5.30;;
68178;SDS011;69812;42.632;23.440;2024-02-14T14:06:32;11.32;;;4.72;;
68178;SDS011;69812;42.632;23.440;2024-02-14T14:08:59;11.15;;;4.95;;
68178;SDS011;69812;42.632;23.440;2024-02-14T14:11:25;10.05;;;4.95;;
68178;SDS011;69812;42.632;23.440;2024-02-14T14:13:52;10.07;;;4.80;;
68178;SDS011;69812;42.632;23.440;2024-02-14T14:16:18;10.82;;;4.93;;
68178;SDS011;69812;42.632;23.440;2024-02-14T14:18:46;9.45;;;4.93;;
68178;SDS011;69812;42.632;23.440;2024-02-14T14:21:13;11.40;;;5.38;;
68178;SDS011;69812;42.632;23.440;2024-02-14T14:23:38;9.77;;;5.30;;
68178;SDS011;69812;42.632;23.440;2024-02-14T14:26:04;13.38;;;5.25;;
68178;SDS011;69812;42.632;23.440;2024-02-14T14:30:57;11.15;;;4.88;;
68178;SDS011;69812;42.632;23.440;2024-02-14T14:33:24;10.35;;;4.72;;
68178;SDS011;69812;42.632;23.440;2024-02-14T14:35:50;10.57;;;5.72;;
68178;SDS011;69812;42.632;23.440;2024-02-14T14:40:43;14.75;;;6.13;;
68178;SDS011;69812;42.632;23.440;2024-02-14T14:43:10;11.55;;;5.65;;
68178;SDS011;69812;42.632;23.440;2024-02-14T14:45:36;9.02;;;4.88;;
68178;SDS011;69812;42.632;23.440;2024-02-14T14:48:03;9.20;;;4.85;;
68178;SDS011;69812;42.632;23.440;2024-02-14T14:50:32;11.30;;;5.18;;
68178;SDS011;69812;42.632;23.440;2024-02-14T14:52:57;10.93;;;5.57;;
68178;SDS011;69812;42.632;23.440;2024-02-14T14:55:26;12.68;;;5.75;;
68178;SDS011;69812;42.632;23.440;2024-02-14T14:58:14;11.88;;;5.43;;
68178;SDS011;69812;42.632;23.440;2024-02-14T15:00:39;14.55;;;5.70;;
68178;SDS011;69812;42.632;23.440;2024-02-14T15:03:05;12.80;;;5.82;;
68178;SDS011;69812;42.632;23.440;2024-02-14T15:05:30;12.95;;;6.13;;
68178;SDS011;69812;42.632;23.440;2024-02-14T15:07:56;14.50;;;5.90;;
68178;SDS011;69812;42.632;23.440;2024-02-14T15:10:24;10.43;;;5.80;;
68178;SDS011;69812;42.632;23.440;2024-02-14T15:12:49;11.73;;;5.97;;
68178;SDS011;69812;42.632;23.440;2024-02-14T15:15:15;9.98;;;5.30;;
68178;SDS011;69812;42.632;23.440;2024-02-14T15:17:41;11.02;;;5.25;;
68178;SDS011;69812;42.632;23.440;2024-02-14T15:20:07;11.88;;;4.95;;
68178;SDS011;69812;42.632;23.440;2024-02-14T15:22:36;12.63;;;4.45;;
68178;SDS011;69812;42.632;23.440;2024-02-14T15:25:03;10.48;;;4.50;;
68178;SDS011;69812;42.632;23.440;2024-02-14T15:27:29;8.57;;;4.10;;
68178;SDS011;69812;42.632;23.440;2024-02-14T15:29:56;10.73;;;4.80;;
68178;SDS011;69812;42.632;23.440;2024-02-14T15:32:40;9.40;;;3.95;;
68178;SDS011;69812;42.632;23.440;2024-02-14T15:35:29;8.02;;;3.92;;
68178;SDS011;69812;42.632;23.440;2024-02-14T15:37:55;10.35;;;4.15;;
68178;SDS011;69812;42.632;23.440;2024-02-14T15:40:20;12.52;;;5.20;;
68178;SDS011;69812;42.632;23.440;2024-02-14T15:42:46;8.57;;;3.80;;
68178;SDS011;69812;42.632;23.440;2024-02-14T15:45:12;7.05;;;4.13;;
68178;SDS011;69812;42.632;23.440;2024-02-14T15:47:42;11.20;;;4.30;;
68178;SDS011;69812;42.632;23.440;2024-02-14T15:50:08;8.52;;;4.95;;
68178;SDS011;69812;42.632;23.440;2024-02-14T15:52:37;7.65;;;3.50;;
68178;SDS011;69812;42.632;23.440;2024-02-14T15:55:03;9.52;;;4.13;;
68178;SDS011;69812;42.632;23.440;2024-02-14T15:57:32;11.70;;;4.60;;
68178;SDS011;69812;42.632;23.440;2024-02-14T15:59:59;7.60;;;3.58;;
68178;SDS011;69812;42.632;23.440;2024-02-14T16:02:24;9.13;;;4.32;;
68178;SDS011;69812;42.632;23.440;2024-02-14T16:04:52;8.45;;;3.88;;
68178;SDS011;69812;42.632;23.440;2024-02-14T16:07:20;8.32;;;4.05;;
68178;SDS011;69812;42.632;23.440;2024-02-14T16:09:45;9.32;;;4.55;;
68178;SDS011;69812;42.632;23.440;2024-02-14T16:12:10;7.72;;;3.80;;
68178;SDS011;69812;42.632;23.440;2024-02-14T16:14:36;8.07;;;3.42;;
68178;SDS011;69812;42.632;23.440;2024-02-14T16:17:03;10.57;;;4.30;;
68178;SDS011;69812;42.632;23.440;2024-02-14T16:19:31;9.65;;;3.70;;
68178;SDS011;69812;42.632;23.440;2024-02-14T16:21:57;6.65;;;3.28;;
68178;SDS011;69812;42.632;23.440;2024-02-14T16:24:24;8.85;;;3.80;;
68178;SDS011;69812;42.632;23.440;2024-02-14T16:26:49;7.90;;;4.03;;
68178;SDS011;69812;42.632;23.440;2024-02-14T16:29:15;7.47;;;3.67;;
68178;SDS011;69812;42.632;23.440;2024-02-14T16:31:41;8.35;;;3.83;;
68178;SDS011;69812;42.632;23.440;2024-02-14T16:34:06;7.97;;;3.50;;
68178;SDS011;69812;42.632;23.440;2024-02-14T16:36:34;8.75;;;4.05;;